Terminal Aerodrome Forecast
Issued by NWS Goodland, KS

Home | Current Version | Previous Version | Text Only | Print | Product List | Glossary On
Versions: 1 2 3 4 5 6 7 8 9 10 11 12 13 14 15 16 17 18 19 20
000
FTUS43 KGLD 212320
TAFGLD
TAF
KGLD 212320Z 2200/2224 VRB03KT P6SM SCT120
     FM220100 28007KT P6SM VCTS BKN100CB
     FM220300 31006KT P6SM BKN250
     FM221600 03006KT P6SM SCT250
     FM221900 10007KT P6SM SCT250
     FM222000 15009KT P6SM SCT250=

USA.gov is the U.S. government's official web portal to all federal, state and local government web resources and services.